Time;durP1;ratioP1;P1;durP2;ratioP2;P2;SDS_P1;SDS_P2;PMS_P1;PMS_P2;Temp;Humidity;BMP_temperature;BMP_pressure;BME280_temperature;BME280_humidity;BME280_pressure;Samples;Min_cycle;Max_cycle;Signal;HPM_P1;HPM_P2
2023/07/17 00:02:10;0.00;0.00;0.62;0.00;0.00;0.62;3.07;2.77;;;32.90;22.10;;;;;;2252305;61;20359;-65
2023/07/17 00:04:55;0.00;0.00;0.62;0.00;0.00;0.62;3.37;2.40;;;32.90;22.20;;;;;;2251893;61;20379;-64
2023/07/17 00:07:41;0.00;0.00;0.62;0.00;0.00;0.62;2.80;2.37;;;32.90;22.20;;;;;;2252259;61;20455;-65
2023/07/17 00:10:26;0.00;0.00;0.62;0.00;0.00;0.62;2.90;2.53;;;32.80;22.10;;;;;;2251367;61;20887;-64
2023/07/17 00:13:11;0.00;0.00;0.62;0.00;0.00;0.62;2.83;2.30;;;32.90;22.10;;;;;;2252457;61;20437;-64
2023/07/17 00:15:55;0.00;0.00;0.62;0.00;0.00;0.62;3.33;2.70;;;32.80;22.60;;;;;;2252034;61;20455;-64
2023/07/17 00:18:40;0.00;0.00;0.62;0.00;0.00;0.62;2.97;2.67;;;32.80;22.60;;;;;;2251612;61;20350;-64
2023/07/17 00:21:26;0.00;0.00;0.62;0.00;0.00;0.62;3.00;2.40;;;32.80;22.10;;;;;;2252192;61;20390;-64
2023/07/17 00:24:12;0.00;0.00;0.62;0.00;0.00;0.62;2.63;2.20;;;32.80;22.10;;;;;;2252185;61;20418;-64
2023/07/17 00:26:57;0.00;0.00;0.62;0.00;0.00;0.62;3.10;2.70;;;32.90;22.20;;;;;;2251950;61;20381;-64
2023/07/17 00:29:43;0.00;0.00;0.62;0.00;0.00;0.62;2.47;2.20;;;32.90;22.20;;;;;;2251808;61;20394;-64
2023/07/17 00:32:28;0.00;0.00;0.62;0.00;0.00;0.62;3.50;2.40;;;32.80;22.10;;;;;;2251573;61;20382;-64
2023/07/17 00:35:16;0.00;0.00;0.62;0.00;0.00;0.62;2.60;2.30;;;32.80;22.10;;;;;;2251767;61;20408;-66
2023/07/17 00:38:01;0.00;0.00;0.62;0.00;0.00;0.62;2.80;2.20;;;32.80;22.10;;;;;;2252345;61;20383;-64
2023/07/17 00:40:47;0.00;0.00;0.62;0.00;0.00;0.62;3.20;2.50;;;32.80;22.10;;;;;;2251853;61;20486;-64
2023/07/17 00:43:31;0.00;0.00;0.62;0.00;0.00;0.62;3.73;2.00;;;32.80;22.10;;;;;;2252193;61;20834;-64
2023/07/17 00:46:16;0.00;0.00;0.62;0.00;0.00;0.62;3.43;2.40;;;32.80;22.20;;;;;;2251424;61;20429;-64
2023/07/17 00:49:03;0.00;0.00;0.62;0.00;0.00;0.62;2.13;1.73;;;32.80;22.10;;;;;;2251371;61;20367;-64
2023/07/17 00:51:48;0.00;0.00;0.62;0.00;0.00;0.62;2.53;1.97;;;32.80;22.10;;;;;;2252160;61;20430;-64
2023/07/17 00:54:34;0.00;0.00;0.62;0.00;0.00;0.62;3.33;2.90;;;32.80;22.10;;;;;;2251157;61;20394;-64
2023/07/17 00:57:25;0.00;0.00;0.62;0.00;0.00;0.62;3.00;2.37;;;32.70;22.10;;;;;;2252159;61;20451;-64
2023/07/17 01:00:12;0.00;0.00;0.62;0.00;0.00;0.62;3.43;2.73;;;32.80;22.20;;;;;;2251842;61;20455;-64
2023/07/17 01:02:58;0.00;0.00;0.62;0.00;0.00;0.62;2.80;2.07;;;32.80;22.20;;;;;;2250826;61;20899;-64
2023/07/17 01:05:43;0.00;0.00;0.62;0.00;0.00;0.62;2.83;2.53;;;32.80;22.20;;;;;;2252101;61;20399;-64
2023/07/17 01:08:28;0.00;0.00;0.62;0.00;0.00;0.62;3.47;2.30;;;32.70;22.10;;;;;;2251685;61;20371;-64
2023/07/17 01:11:13;0.00;0.00;0.62;0.00;0.00;0.62;3.23;2.00;;;32.80;22.20;;;;;;2251695;61;20367;-64
2023/07/17 01:14:00;0.00;0.00;0.62;0.00;0.00;0.62;3.10;2.53;;;32.80;22.20;;;;;;2252026;61;20390;-64
2023/07/17 01:16:47;0.00;0.00;0.62;0.00;0.00;0.62;3.10;2.30;;;32.70;22.20;;;;;;2251209;61;20779;-64
2023/07/17 01:19:31;0.00;0.00;0.62;0.00;0.00;0.62;3.07;2.60;;;32.70;22.20;;;;;;2251707;61;20369;-65
2023/07/17 01:22:22;0.00;0.00;0.62;0.00;0.00;0.62;2.43;2.23;;;32.70;22.20;;;;;;2252083;61;20355;-64
2023/07/17 01:25:10;0.00;0.00;0.62;0.00;0.00;0.62;3.30;2.30;;;32.70;22.20;;;;;;2251453;61;20462;-64
2023/07/17 01:27:55;0.00;0.00;0.62;0.00;0.00;0.62;3.03;2.50;;;32.70;22.20;;;;;;2252073;61;20366;-64
2023/07/17 01:30:40;0.00;0.00;0.62;0.00;0.00;0.62;2.33;2.10;;;32.70;22.20;;;;;;2251963;61;20362;-64
2023/07/17 01:33:24;0.00;0.00;0.62;0.00;0.00;0.62;2.60;2.10;;;32.70;22.20;;;;;;2251916;61;20387;-64
2023/07/17 01:36:09;0.00;0.00;0.62;0.00;0.00;0.62;3.17;2.23;;;32.70;22.20;;;;;;2251662;61;20390;-65
2023/07/17 01:38:56;0.00;0.00;0.62;0.00;0.00;0.62;3.10;2.50;;;32.60;22.20;;;;;;2248062;61;20379;-64
2023/07/17 01:41:42;0.00;0.00;0.62;0.00;0.00;0.62;3.30;2.50;;;32.60;22.20;;;;;;2251707;61;20525;-65
2023/07/17 01:44:28;0.00;0.00;0.62;0.00;0.00;0.62;3.17;2.37;;;32.70;22.20;;;;;;2252842;61;20418;-64
2023/07/17 01:47:12;0.00;0.00;0.62;0.00;0.00;0.62;2.90;2.40;;;32.60;22.20;;;;;;2251751;61;20382;-64
2023/07/17 01:50:01;0.00;0.00;0.62;0.00;0.00;0.62;3.40;2.47;;;32.60;22.20;;;;;;2251800;61;20370;-63
2023/07/17 01:52:48;0.00;0.00;0.62;0.00;0.00;0.62;2.83;2.43;;;32.60;22.20;;;;;;2252350;61;20386;-64
2023/07/17 01:55:33;0.00;0.00;0.62;0.00;0.00;0.62;3.50;2.50;;;32.60;22.70;;;;;;2252321;61;20449;-64
2023/07/17 01:58:19;0.00;0.00;0.62;0.00;0.00;0.62;3.50;2.87;;;32.60;22.20;;;;;;2252279;61;20386;-63
2023/07/17 02:01:04;0.00;0.00;0.62;0.00;0.00;0.62;2.27;1.90;;;32.60;22.20;;;;;;2251401;61;20418;-63
2023/07/17 02:03:48;0.00;0.00;0.62;0.00;0.00;0.62;4.87;2.80;;;32.60;22.20;;;;;;2252898;61;20402;-64
2023/07/17 02:06:33;0.00;0.00;0.62;0.00;0.00;0.62;3.00;2.50;;;32.60;22.30;;;;;;2252805;61;20363;-67
2023/07/17 02:09:17;0.00;0.00;0.62;0.00;0.00;0.62;2.90;2.60;;;32.60;22.20;;;;;;2251616;61;20414;-63
2023/07/17 02:12:02;0.00;0.00;0.62;0.00;0.00;0.62;4.03;2.50;;;32.60;22.30;;;;;;2252780;61;20391;-64
2023/07/17 02:14:50;0.00;0.00;0.62;0.00;0.00;0.62;3.00;2.37;;;32.60;22.30;;;;;;2252280;61;20418;-63
2023/07/17 02:17:35;0.00;0.00;0.62;0.00;0.00;0.62;2.77;2.07;;;32.60;22.30;;;;;;2251905;61;20370;-64
2023/07/17 02:20:20;0.00;0.00;0.62;0.00;0.00;0.62;3.00;2.40;;;32.60;22.30;;;;;;2251878;61;20417;-64
2023/07/17 02:23:05;0.00;0.00;0.62;0.00;0.00;0.62;3.23;2.37;;;32.60;22.30;;;;;;2252349;61;20355;-64
2023/07/17 02:25:52;0.00;0.00;0.62;0.00;0.00;0.62;2.90;2.13;;;32.60;22.30;;;;;;2252180;61;20383;-64
2023/07/17 02:28:37;0.00;0.00;0.62;0.00;0.00;0.62;2.97;2.27;;;32.60;22.30;;;;;;2252225;61;20923;-64
2023/07/17 02:31:23;0.00;0.00;0.62;0.00;0.00;0.62;3.13;2.83;;;32.50;22.30;;;;;;2252147;61;20367;-63
2023/07/17 02:34:08;0.00;0.00;0.62;0.00;0.00;0.62;3.60;2.67;;;32.60;22.30;;;;;;2252461;61;20421;-64
2023/07/17 02:36:53;0.00;0.00;0.62;0.00;0.00;0.62;3.00;2.40;;;32.50;22.30;;;;;;2252197;61;20409;-64
2023/07/17 02:39:38;0.00;0.00;0.62;0.00;0.00;0.62;2.80;2.40;;;32.60;22.30;;;;;;2251478;61;20375;-65
2023/07/17 02:42:25;0.00;0.00;0.62;0.00;0.00;0.62;2.80;2.40;;;32.60;22.40;;;;;;2252636;61;20367;-64
2023/07/17 02:45:10;0.00;0.00;0.62;0.00;0.00;0.62;3.10;2.30;;;32.50;22.30;;;;;;2252282;61;20410;-64
2023/07/17 02:47:56;0.00;0.00;0.62;0.00;0.00;0.62;2.70;2.30;;;32.50;22.30;;;;;;2252573;61;20363;-64
2023/07/17 02:50:41;0.00;0.00;0.62;0.00;0.00;0.62;2.83;2.40;;;32.50;22.30;;;;;;2252544;61;20413;-64
2023/07/17 02:53:26;0.00;0.00;0.62;0.00;0.00;0.62;3.17;2.37;;;32.50;22.30;;;;;;2251428;61;20407;-64
2023/07/17 02:56:10;0.00;0.00;0.62;0.00;0.00;0.62;3.33;1.97;;;32.50;22.40;;;;;;2252403;61;20383;-64
2023/07/17 02:58:55;0.00;0.00;0.62;0.00;0.00;0.62;3.43;2.27;;;32.50;22.30;;;;;;2252215;61;20409;-64
2023/07/17 03:01:40;0.00;0.00;0.62;0.00;0.00;0.62;3.50;2.67;;;32.50;22.40;;;;;;2251846;61;20407;-64
2023/07/17 03:04:26;0.00;0.00;0.62;0.00;0.00;0.62;2.97;2.63;;;32.50;22.40;;;;;;2252423;61;20390;-64
2023/07/17 03:07:11;0.00;0.00;0.62;0.00;0.00;0.62;3.17;2.27;;;32.50;22.40;;;;;;2251873;61;21083;-64
2023/07/17 03:09:55;0.00;0.00;0.62;0.00;0.00;0.62;3.27;2.50;;;32.50;22.40;;;;;;2251241;61;20398;-64
2023/07/17 03:12:40;0.00;0.00;0.62;0.00;0.00;0.62;3.00;2.37;;;32.50;22.90;;;;;;2252545;61;20386;-64
2023/07/17 03:15:26;0.00;0.00;0.62;0.00;0.00;0.62;2.90;2.40;;;32.50;22.40;;;;;;2251866;61;21015;-64
2023/07/17 03:18:11;0.00;0.00;0.62;0.00;0.00;0.62;3.10;2.43;;;32.50;22.40;;;;;;2252275;61;20410;-63
2023/07/17 03:20:57;0.00;0.00;0.62;0.00;0.00;0.62;2.63;2.43;;;32.50;22.40;;;;;;2252603;61;20371;-63
2023/07/17 03:23:42;0.00;0.00;0.62;0.00;0.00;0.62;4.93;2.60;;;32.40;22.30;;;;;;2251594;61;20394;-67
2023/07/17 03:26:26;0.00;0.00;0.62;0.00;0.00;0.62;2.83;2.50;;;32.40;22.90;;;;;;2252033;61;20394;-64
2023/07/17 03:29:12;0.00;0.00;0.62;0.00;0.00;0.62;2.50;2.27;;;32.40;22.30;;;;;;2251344;61;20866;-64
2023/07/17 03:31:57;0.00;0.00;0.62;0.00;0.00;0.62;2.83;2.50;;;32.50;22.40;;;;;;2251988;61;20426;-64
2023/07/17 03:34:42;0.00;0.00;0.62;0.00;0.00;0.62;3.27;2.60;;;32.40;22.30;;;;;;2252379;61;20382;-64
2023/07/17 03:37:30;0.00;0.00;0.62;0.00;0.00;0.62;2.47;2.17;;;32.40;22.30;;;;;;2251447;61;20916;-65
2023/07/17 03:40:15;0.00;0.00;0.62;0.00;0.00;0.62;2.97;2.67;;;32.40;22.40;;;;;;2248754;61;20362;-64
2023/07/17 03:42:59;0.00;0.00;0.62;0.00;0.00;0.62;3.57;2.77;;;32.40;22.30;;;;;;2252075;61;20390;-64
2023/07/17 03:45:49;0.00;0.00;0.62;0.00;0.00;0.62;2.73;2.13;;;32.40;22.30;;;;;;2251233;61;20937;-65
2023/07/17 03:48:34;0.00;0.00;0.62;0.00;0.00;0.62;3.50;2.50;;;32.40;22.40;;;;;;2251547;61;20390;-64
2023/07/17 03:51:23;0.00;0.00;0.62;0.00;0.00;0.62;3.10;2.10;;;32.40;22.30;;;;;;2251613;61;20370;-64
2023/07/17 03:54:10;0.00;0.00;0.62;0.00;0.00;0.62;2.63;2.43;;;32.40;22.40;;;;;;2252168;61;20394;-64
2023/07/17 03:56:55;0.00;0.00;0.62;0.00;0.00;0.62;2.97;2.50;;;32.40;22.40;;;;;;2251664;61;20367;-64
2023/07/17 03:59:48;0.00;0.00;0.62;0.00;0.00;0.62;3.33;2.53;;;32.40;22.40;;;;;;2250947;61;20976;-66
2023/07/17 04:02:33;0.00;0.00;0.62;0.00;0.00;0.62;3.47;2.40;;;32.30;22.30;;;;;;2251844;61;20355;-64
2023/07/17 04:05:18;0.00;0.00;0.62;0.00;0.00;0.62;2.67;2.37;;;32.30;22.30;;;;;;2252076;61;20398;-69
2023/07/17 04:08:03;0.00;0.00;0.62;0.00;0.00;0.62;3.07;2.33;;;32.30;22.30;;;;;;2251226;61;20371;-64
2023/07/17 04:10:50;0.00;0.00;0.62;0.00;0.00;0.62;3.80;3.00;;;32.30;22.30;;;;;;2251729;61;20899;-63
2023/07/17 04:13:39;0.00;0.00;0.62;0.00;0.00;0.62;2.27;2.07;;;32.30;22.40;;;;;;2251377;61;20452;-64
2023/07/17 04:16:26;0.00;0.00;0.62;0.00;0.00;0.62;3.77;2.43;;;32.30;22.90;;;;;;2249080;61;20430;-63
2023/07/17 04:19:11;0.00;0.00;0.62;0.00;0.00;0.62;3.10;2.80;;;32.30;22.40;;;;;;2251408;61;20417;-64
2023/07/17 04:21:56;0.00;0.00;0.62;0.00;0.00;0.62;4.10;2.97;;;32.30;22.40;;;;;;2251188;61;20844;-63
2023/07/17 04:24:42;0.00;0.00;0.62;0.00;0.00;0.62;3.30;3.00;;;32.30;22.40;;;;;;2251655;61;20856;-65
2023/07/17 04:27:27;0.00;0.00;0.62;0.00;0.00;0.62;3.30;2.43;;;32.30;22.40;;;;;;2251907;61;20366;-63
2023/07/17 04:30:13;0.00;0.00;0.62;0.00;0.00;0.62;3.33;2.73;;;32.30;22.40;;;;;;2250967;61;20442;-65
2023/07/17 04:32:58;0.00;0.00;0.62;0.00;0.00;0.62;3.33;2.73;;;32.30;22.40;;;;;;2251671;61;20410;-65
2023/07/17 04:35:43;0.00;0.00;0.62;0.00;0.00;0.62;3.50;2.67;;;32.30;22.40;;;;;;2251530;61;20805;-64
2023/07/17 04:38:29;0.00;0.00;0.62;0.00;0.00;0.62;3.00;2.33;;;32.20;22.40;;;;;;2251635;61;20394;-65
2023/07/17 04:41:14;0.00;0.00;0.62;0.00;0.00;0.62;3.33;2.53;;;32.30;22.40;;;;;;2251720;61;20772;-64
2023/07/17 04:44:00;0.00;0.00;0.62;0.00;0.00;0.62;3.53;2.87;;;32.20;22.90;;;;;;2251249;61;20381;-64
2023/07/17 04:46:46;0.00;0.00;0.62;0.00;0.00;0.62;6.07;2.70;;;32.20;22.40;;;;;;2251982;61;20394;-64
2023/07/17 04:49:31;0.00;0.00;0.62;0.00;0.00;0.62;2.90;2.57;;;32.20;22.40;;;;;;2251374;61;20603;-64
2023/07/17 04:52:16;0.00;0.00;0.62;0.00;0.00;0.62;3.60;2.53;;;32.30;22.40;;;;;;2251321;61;20434;-64
2023/07/17 04:55:00;0.00;0.00;0.62;0.00;0.00;0.62;6.70;3.20;;;32.20;22.40;;;;;;2251689;61;20390;-64
2023/07/17 04:57:45;0.00;0.00;0.62;0.00;0.00;0.62;3.57;2.97;;;32.30;22.50;;;;;;2251467;61;20370;-64
2023/07/17 05:00:33;0.00;0.00;0.62;0.00;0.00;0.62;3.30;3.00;;;32.20;22.40;;;;;;2251262;61;20393;-65
2023/07/17 05:03:18;0.00;0.00;0.62;0.00;0.00;0.62;4.47;3.10;;;32.20;22.40;;;;;;2251590;61;20350;-64
2023/07/17 05:06:03;0.00;0.00;0.62;0.00;0.00;0.62;3.40;3.10;;;32.20;22.50;;;;;;2251640;61;20394;-64
2023/07/17 05:08:48;0.00;0.00;0.62;0.00;0.00;0.62;3.73;3.33;;;32.20;22.50;;;;;;2251314;61;20367;-66
2023/07/17 05:11:33;0.00;0.00;0.62;0.00;0.00;0.62;4.50;3.40;;;32.20;22.50;;;;;;2252110;61;20387;-65
2023/07/17 05:14:18;0.00;0.00;0.62;0.00;0.00;0.62;3.90;2.93;;;32.20;22.50;;;;;;2251696;61;21976;-64
2023/07/17 05:17:05;0.00;0.00;0.62;0.00;0.00;0.62;3.40;3.10;;;32.20;22.50;;;;;;2251899;61;20970;-64
2023/07/17 05:19:50;0.00;0.00;0.62;0.00;0.00;0.62;3.80;3.03;;;32.20;22.50;;;;;;2251892;61;20463;-64
2023/07/17 05:22:35;0.00;0.00;0.62;0.00;0.00;0.62;3.63;3.33;;;32.20;22.50;;;;;;2251985;61;20358;-64
2023/07/17 05:25:21;0.00;0.00;0.62;0.00;0.00;0.62;4.00;3.20;;;32.20;22.50;;;;;;2252137;61;20382;-66
2023/07/17 05:28:05;0.00;0.00;0.62;0.00;0.00;0.62;3.40;3.10;;;32.20;22.50;;;;;;2252238;61;20369;-65
2023/07/17 05:30:51;0.00;0.00;0.62;0.00;0.00;0.62;3.97;3.30;;;32.20;22.50;;;;;;2252737;61;20776;-68
2023/07/17 05:33:37;0.00;0.00;0.62;0.00;0.00;0.62;4.40;2.90;;;32.20;22.60;;;;;;2252139;61;20931;-64
2023/07/17 05:36:22;0.00;0.00;0.62;0.00;0.00;0.62;3.83;3.10;;;32.20;22.50;;;;;;2251782;61;20390;-64
2023/07/17 05:39:08;0.00;0.00;0.62;0.00;0.00;0.62;3.70;3.20;;;32.20;22.60;;;;;;2251643;61;20363;-64
2023/07/17 05:41:53;0.00;0.00;0.62;0.00;0.00;0.62;4.73;3.60;;;32.20;22.50;;;;;;2252365;61;20622;-63
2023/07/17 05:44:38;0.00;0.00;0.62;0.00;0.00;0.62;4.30;3.20;;;32.20;22.60;;;;;;2251984;61;20792;-63
2023/07/17 05:47:23;0.00;0.00;0.62;0.00;0.00;0.62;3.50;3.00;;;32.10;22.50;;;;;;2252118;61;20792;-64
2023/07/17 05:50:11;0.00;0.00;0.62;0.00;0.00;0.62;3.70;3.10;;;32.20;22.60;;;;;;2252219;61;20451;-64
2023/07/17 05:52:57;0.00;0.00;0.62;0.00;0.00;0.62;4.33;3.10;;;32.10;22.50;;;;;;2251965;61;20453;-69
2023/07/17 05:55:43;0.00;0.00;0.62;0.00;0.00;0.62;3.40;2.70;;;32.20;22.60;;;;;;2252291;61;20383;-65
2023/07/17 05:58:28;0.00;0.00;0.62;0.00;0.00;0.62;3.77;2.80;;;32.20;22.60;;;;;;2251831;61;20814;-64
2023/07/17 06:01:13;0.00;0.00;0.62;0.00;0.00;0.62;3.53;2.57;;;32.10;22.50;;;;;;2252207;61;20472;-63
2023/07/17 06:03:57;0.00;0.00;0.62;0.00;0.00;0.62;3.30;2.80;;;32.20;22.60;;;;;;2252214;61;20385;-63
2023/07/17 06:06:43;0.00;0.00;0.62;0.00;0.00;0.62;3.73;3.20;;;32.20;22.60;;;;;;2251704;61;20775;-64
2023/07/17 06:09:28;0.00;0.00;0.62;0.00;0.00;0.62;2.93;2.60;;;32.20;22.60;;;;;;2252215;61;20370;-66
2023/07/17 06:12:12;0.00;0.00;0.62;0.00;0.00;0.62;3.87;2.80;;;32.10;22.50;;;;;;2252570;61;20395;-64
2023/07/17 06:14:57;0.00;0.00;0.62;0.00;0.00;0.62;4.03;3.10;;;32.10;22.50;;;;;;2252430;61;20398;-64
2023/07/17 06:17:41;0.00;0.00;0.62;0.00;0.00;0.62;3.30;2.97;;;32.20;22.60;;;;;;2252780;61;20367;-64
2023/07/17 06:20:26;0.00;0.00;0.62;0.00;0.00;0.62;2.57;2.30;;;32.10;22.60;;;;;;2251673;61;20370;-64
2023/07/17 06:23:12;0.00;0.00;0.62;0.00;0.00;0.62;2.77;2.43;;;32.10;22.60;;;;;;2252767;61;20359;-64
2023/07/17 06:25:57;0.00;0.00;0.62;0.00;0.00;0.62;3.00;2.70;;;32.10;22.60;;;;;;2252699;61;20522;-63
2023/07/17 06:28:42;0.00;0.00;0.62;0.00;0.00;0.62;3.70;2.70;;;32.10;22.60;;;;;;2251388;61;20367;-64
2023/07/17 06:31:27;0.00;0.00;0.62;0.00;0.00;0.62;3.90;2.87;;;32.10;22.60;;;;;;2252477;61;20396;-64
2023/07/17 06:34:12;0.00;0.00;0.62;0.00;0.00;0.62;4.57;2.67;;;32.10;22.60;;;;;;2252150;61;20441;-65
2023/07/17 06:36:56;0.00;0.00;0.62;0.00;0.00;0.62;3.27;2.90;;;32.10;22.60;;;;;;2252342;61;20467;-66
2023/07/17 06:39:42;0.00;0.00;0.62;0.00;0.00;0.62;2.73;2.43;;;32.10;22.60;;;;;;2251813;61;20370;-64
2023/07/17 06:42:27;0.00;0.00;0.62;0.00;0.00;0.62;3.40;2.60;;;32.10;22.60;;;;;;2251843;61;20417;-68
2023/07/17 06:45:11;0.00;0.00;0.62;0.00;0.00;0.62;4.00;3.00;;;32.10;22.60;;;;;;2252726;61;20422;-64
2023/07/17 06:47:56;0.00;0.00;0.62;0.00;0.00;0.62;3.63;2.60;;;32.10;22.60;;;;;;2252615;61;20910;-64
2023/07/17 06:50:41;0.00;0.00;0.62;0.00;0.00;0.62;3.00;1.93;;;32.10;22.60;;;;;;2251844;61;20406;-64
2023/07/17 06:53:25;0.00;0.00;0.62;0.00;0.00;0.62;3.23;2.70;;;32.10;22.60;;;;;;2251890;61;20922;-64
2023/07/17 06:56:11;0.00;0.00;0.62;0.00;0.00;0.62;4.30;2.80;;;32.10;22.60;;;;;;2252113;61;20379;-64
2023/07/17 06:58:56;0.00;0.00;0.62;0.00;0.00;0.62;3.73;2.97;;;32.10;22.60;;;;;;2251218;61;20433;-64
2023/07/17 07:01:41;0.00;0.00;0.62;0.00;0.00;0.62;2.87;2.13;;;32.10;22.60;;;;;;2252546;61;20362;-64
2023/07/17 07:04:26;0.00;0.00;0.62;0.00;0.00;0.62;3.03;1.97;;;32.10;23.10;;;;;;2251480;61;20919;-64
2023/07/17 07:07:11;0.00;0.00;0.62;0.00;0.00;0.62;3.30;2.60;;;32.10;22.60;;;;;;2252738;61;20785;-64
2023/07/17 07:09:55;0.00;0.00;0.62;0.00;0.00;0.62;3.20;2.30;;;32.10;23.10;;;;;;2251748;61;20955;-64
2023/07/17 07:12:41;0.00;0.00;0.62;0.00;0.00;0.62;3.27;2.50;;;32.10;22.60;;;;;;2252043;61;20915;-64
2023/07/17 07:15:26;0.00;0.00;0.62;0.00;0.00;0.62;3.20;2.90;;;32.10;22.60;;;;;;2252603;61;20841;-64
2023/07/17 07:18:11;0.00;0.00;0.62;0.00;0.00;0.62;2.73;2.10;;;32.10;22.60;;;;;;2252384;61;20366;-64
2023/07/17 07:20:55;0.00;0.00;0.62;0.00;0.00;0.62;3.60;2.30;;;32.10;22.60;;;;;;2251936;61;20796;-64
2023/07/17 07:23:40;0.00;0.00;0.62;0.00;0.00;0.62;2.47;2.13;;;32.10;22.70;;;;;;2252129;61;20812;-64
2023/07/17 07:26:25;0.00;0.00;0.62;0.00;0.00;0.62;2.90;2.40;;;32.10;22.70;;;;;;2252165;61;20900;-64
2023/07/17 07:29:11;0.00;0.00;0.62;0.00;0.00;0.62;3.33;2.20;;;32.10;22.70;;;;;;2252189;61;20362;-64
2023/07/17 07:31:56;0.00;0.00;0.62;0.00;0.00;0.62;4.07;2.13;;;32.10;22.70;;;;;;2252469;61;20455;-64
2023/07/17 07:34:41;0.00;0.00;0.62;0.00;0.00;0.62;3.23;1.80;;;32.10;22.70;;;;;;2251687;61;20445;-64
2023/07/17 07:37:25;0.00;0.00;0.62;0.00;0.00;0.62;2.47;2.00;;;32.10;22.70;;;;;;2252592;61;20414;-64
2023/07/17 07:40:12;0.00;0.00;0.62;0.00;0.00;0.62;3.50;1.90;;;32.10;22.70;;;;;;2252214;61;20383;-65
2023/07/17 07:42:56;0.00;0.00;0.62;0.00;0.00;0.62;2.13;1.70;;;32.10;22.70;;;;;;2251823;61;20375;-64
2023/07/17 07:45:42;0.00;0.00;0.62;0.00;0.00;0.62;2.07;1.70;;;32.10;22.70;;;;;;2252204;61;20947;-64
2023/07/17 07:48:29;0.00;0.00;0.62;0.00;0.00;0.62;2.93;2.27;;;32.10;22.70;;;;;;2251674;61;21027;-64
2023/07/17 07:51:14;0.00;0.00;0.62;0.00;0.00;0.62;3.20;1.90;;;32.10;22.70;;;;;;2252146;61;20359;-64
2023/07/17 07:54:03;0.00;0.00;0.62;0.00;0.00;0.62;3.20;2.03;;;32.10;22.70;;;;;;2252147;61;20398;-64
2023/07/17 07:56:48;0.00;0.00;0.62;0.00;0.00;0.62;3.03;2.00;;;32.00;22.70;;;;;;2251281;61;20459;-63
2023/07/17 07:59:32;0.00;0.00;0.62;0.00;0.00;0.62;2.63;1.83;;;32.00;22.60;;;;;;2251908;61;20418;-63
2023/07/17 08:02:19;0.00;0.00;0.62;0.00;0.00;0.62;2.50;2.23;;;32.10;22.70;;;;;;2252399;61;20363;-64
2023/07/17 08:05:05;0.00;0.00;0.62;0.00;0.00;0.62;2.17;1.60;;;32.10;22.70;;;;;;2251781;61;20399;-64
2023/07/17 08:07:50;0.00;0.00;0.62;0.00;0.00;0.62;2.37;2.00;;;32.10;22.70;;;;;;2252261;61;20371;-66
2023/07/17 08:10:38;0.00;0.00;0.62;0.00;0.00;0.62;2.87;2.03;;;32.10;22.70;;;;;;2251827;61;20421;-63
2023/07/17 08:13:23;0.00;0.00;0.62;0.00;0.00;0.62;2.37;1.73;;;32.10;22.70;;;;;;2251644;61;20982;-63
2023/07/17 08:16:08;0.00;0.00;0.62;0.00;0.00;0.62;2.33;2.10;;;32.10;22.70;;;;;;2252129;61;20382;-63
2023/07/17 08:18:53;0.00;0.00;0.62;0.00;0.00;0.62;3.30;1.70;;;32.10;22.70;;;;;;2251456;61;20363;-65
2023/07/17 08:21:38;0.00;0.00;0.62;0.00;0.00;0.62;2.07;1.40;;;32.10;22.70;;;;;;2252130;61;20776;-64
2023/07/17 08:24:23;0.00;0.00;0.62;0.00;0.00;0.62;1.80;1.20;;;32.10;22.70;;;;;;2252291;61;20394;-64
2023/07/17 08:27:08;0.00;0.00;0.62;0.00;0.00;0.62;2.00;1.50;;;32.10;22.70;;;;;;2251598;61;20911;-64
2023/07/17 08:29:53;0.00;0.00;0.62;0.00;0.00;0.62;2.37;1.70;;;32.10;22.70;;;;;;2252081;61;20443;-66
2023/07/17 08:32:37;0.00;0.00;0.62;0.00;0.00;0.62;2.10;1.50;;;32.10;22.70;;;;;;2251916;61;20394;-63
2023/07/17 08:35:23;0.00;0.00;0.62;0.00;0.00;0.62;2.40;1.67;;;32.10;22.70;;;;;;2251938;61;20440;-64
2023/07/17 08:38:08;0.00;0.00;0.62;0.00;0.00;0.62;2.20;1.60;;;32.10;22.70;;;;;;2252292;61;20375;-64
2023/07/17 08:40:53;0.00;0.00;0.62;0.00;0.00;0.62;2.37;1.60;;;32.10;22.70;;;;;;2251575;61;20377;-64
2023/07/17 08:43:38;0.00;0.00;0.62;0.00;0.00;0.62;1.90;1.50;;;32.10;22.70;;;;;;2252214;61;20367;-63
2023/07/17 08:46:23;0.00;0.00;0.62;0.00;0.00;0.62;2.13;1.30;;;32.10;23.20;;;;;;2252211;61;20922;-64
2023/07/17 08:49:09;0.00;0.00;0.62;0.00;0.00;0.62;2.43;1.90;;;32.10;22.70;;;;;;2251073;61;21139;-64
2023/07/17 08:51:56;0.00;0.00;0.62;0.00;0.00;0.62;2.10;1.60;;;32.10;22.60;;;;;;2252036;61;20370;-64
2023/07/17 08:54:41;0.00;0.00;0.62;0.00;0.00;0.62;2.30;1.60;;;32.10;22.70;;;;;;2252010;61;20394;-64
2023/07/17 08:57:26;0.00;0.00;0.62;0.00;0.00;0.62;3.97;2.10;;;32.10;22.60;;;;;;2252003;61;20366;-64
2023/07/17 09:00:15;0.00;0.00;0.62;0.00;0.00;0.62;2.33;1.47;;;32.10;22.70;;;;;;2251517;61;20495;-64
2023/07/17 09:03:01;0.00;0.00;0.62;0.00;0.00;0.62;1.87;1.33;;;32.10;22.60;;;;;;2251521;61;20447;-64
2023/07/17 09:05:45;0.00;0.00;0.62;0.00;0.00;0.62;2.50;1.57;;;32.00;22.60;;;;;;2252149;61;20383;-63
2023/07/17 09:08:31;0.00;0.00;0.62;0.00;0.00;0.62;2.70;1.67;;;32.10;23.10;;;;;;2251867;61;20374;-63
2023/07/17 09:11:17;0.00;0.00;0.62;0.00;0.00;0.62;2.87;1.97;;;32.10;22.60;;;;;;2251458;61;20367;-66
2023/07/17 09:14:03;0.00;0.00;0.62;0.00;0.00;0.62;2.10;1.70;;;32.10;22.60;;;;;;2252076;61;20386;-64
2023/07/17 09:16:48;0.00;0.00;0.62;0.00;0.00;0.62;2.20;1.50;;;32.10;22.60;;;;;;2251650;61;20368;-64
2023/07/17 09:19:34;0.00;0.00;0.62;0.00;0.00;0.62;2.07;1.60;;;32.10;23.10;;;;;;2251399;61;20371;-64
2023/07/17 09:22:19;0.00;0.00;0.62;0.00;0.00;0.62;2.30;1.90;;;32.10;22.60;;;;;;2252113;61;20370;-64
2023/07/17 09:25:08;0.00;0.00;0.62;0.00;0.00;0.62;2.70;1.80;;;32.10;22.60;;;;;;2251493;61;20383;-64
2023/07/17 09:27:53;0.00;0.00;0.62;0.00;0.00;0.62;1.90;1.37;;;32.10;22.60;;;;;;2251866;61;20382;-65
2023/07/17 09:30:38;0.00;0.00;0.62;0.00;0.00;0.62;2.93;1.77;;;32.10;22.60;;;;;;2251760;61;20400;-64
2023/07/17 09:33:24;0.00;0.00;0.62;0.00;0.00;0.62;2.33;1.47;;;32.10;22.60;;;;;;2251499;61;20414;-63
2023/07/17 09:36:11;0.00;0.00;0.62;0.00;0.00;0.62;2.13;1.53;;;32.10;22.60;;;;;;2251746;61;20385;-62
2023/07/17 09:38:58;0.00;0.00;0.62;0.00;0.00;0.62;2.67;1.90;;;32.10;22.60;;;;;;2251716;61;20366;-63
2023/07/17 09:41:44;0.00;0.00;0.62;0.00;0.00;0.62;3.03;1.83;;;32.10;22.60;;;;;;2251330;61;20883;-63
2023/07/17 09:44:30;0.00;0.00;0.62;0.00;0.00;0.62;2.70;1.47;;;32.10;22.60;;;;;;2251905;61;20383;-62
2023/07/17 09:47:16;0.00;0.00;0.62;0.00;0.00;0.62;3.63;1.80;;;32.10;22.60;;;;;;2251567;61;20386;-62
2023/07/17 09:50:03;0.00;0.00;0.62;0.00;0.00;0.62;2.43;1.57;;;32.10;23.10;;;;;;2251370;61;20366;-63
2023/07/17 09:52:50;0.00;0.00;0.62;0.00;0.00;0.62;2.70;1.90;;;32.10;22.60;;;;;;2252001;61;20884;-64
2023/07/17 09:55:35;0.00;0.00;0.62;0.00;0.00;0.62;2.17;1.60;;;32.10;22.60;;;;;;2251495;61;20946;-63
2023/07/17 09:58:24;0.00;0.00;0.62;0.00;0.00;0.62;3.03;1.70;;;32.10;23.10;;;;;;2251624;61;20421;-65
2023/07/17 10:01:08;0.00;0.00;0.62;0.00;0.00;0.62;2.57;1.80;;;32.10;22.60;;;;;;2251969;61;20926;-63
2023/07/17 10:03:54;0.00;0.00;0.62;0.00;0.00;0.62;2.67;1.80;;;32.10;22.50;;;;;;2251974;61;20463;-64
2023/07/17 10:06:42;0.00;0.00;0.62;0.00;0.00;0.62;2.17;1.50;;;32.10;22.50;;;;;;2252667;61;20383;-64
2023/07/17 10:09:33;0.00;0.00;0.62;0.00;0.00;0.62;2.50;1.97;;;32.10;22.60;;;;;;2251668;61;20399;-63
2023/07/17 10:12:18;0.00;0.00;0.62;0.00;0.00;0.62;3.03;2.13;;;32.10;22.60;;;;;;2252887;61;20437;-64
2023/07/17 10:15:06;0.00;0.00;0.62;0.00;0.00;0.62;2.53;1.83;;;32.10;22.50;;;;;;2252678;61;20453;-64
2023/07/17 10:17:56;0.00;0.00;0.62;0.00;0.00;0.62;2.73;1.67;;;32.10;22.50;;;;;;2251925;61;20375;-63
2023/07/17 10:20:52;0.00;0.00;0.62;0.00;0.00;0.62;2.90;2.00;;;32.10;23.10;;;;;;2252622;61;20816;-63
2023/07/17 10:23:41;0.00;0.00;0.62;0.00;0.00;0.62;2.30;1.77;;;32.20;22.60;;;;;;2252458;61;20359;-64
2023/07/17 10:26:28;0.00;0.00;0.62;0.00;0.00;0.62;2.63;2.10;;;32.20;22.50;;;;;;2252149;61;20394;-64
2023/07/17 10:29:13;0.00;0.00;0.62;0.00;0.00;0.62;2.40;2.00;;;32.20;22.50;;;;;;2252015;61;20366;-64
2023/07/17 10:32:09;0.00;0.00;0.62;0.00;0.00;0.62;2.77;2.30;;;32.20;22.50;;;;;;2252103;61;20398;-65
2023/07/17 10:34:54;0.00;0.00;0.62;0.00;0.00;0.62;2.70;1.90;;;32.10;22.50;;;;;;2252419;61;20392;-64
2023/07/17 10:37:41;0.00;0.00;0.62;0.00;0.00;0.62;2.67;1.90;;;32.20;22.50;;;;;;2252768;61;20936;-64
2023/07/17 10:40:28;0.00;0.00;0.62;0.00;0.00;0.62;2.40;1.80;;;32.20;22.50;;;;;;2251474;61;20367;-64
2023/07/17 10:43:19;0.00;0.00;0.62;0.00;0.00;0.62;2.43;1.93;;;32.20;22.50;;;;;;2252646;61;20359;-64
2023/07/17 10:46:08;0.00;0.00;0.62;0.00;0.00;0.62;2.67;1.83;;;32.20;22.50;;;;;;2252236;61;20908;-64
2023/07/17 10:49:05;0.00;0.00;0.62;0.00;0.00;0.62;3.00;2.27;;;32.20;22.50;;;;;;2252077;61;20371;-64
2023/07/17 10:51:51;0.00;0.00;0.62;0.00;0.00;0.62;2.87;2.10;;;32.20;22.50;;;;;;2252659;61;20371;-64
2023/07/17 10:54:36;0.00;0.00;0.62;0.00;0.00;0.62;2.37;1.80;;;32.20;22.40;;;;;;2251836;61;20403;-64